Time;durP1;ratioP1;P1;durP2;ratioP2;P2;SDS_P1;SDS_P2;PMS_P1;PMS_P2;Temp;Humidity;BMP_temperature;BMP_pressure;BME280_temperature;BME280_humidity;BME280_pressure;Samples;Min_cycle;Max_cycle;Signal;HPM_P1;HPM_P2
2024/04/10 00:00:56;;;;;;;;;;;;;;;23.36;44.33;94868.47;5341116;26;7543;-65
2024/04/10 00:03:42;;;;;;;;;;;;;;;23.39;44.13;94878.44;5373983;26;7046;-65
2024/04/10 00:06:20;;;;;;;;;;;;;;;23.29;44.47;94879.84;5374350;26;7128;-65
2024/04/10 00:08:58;;;;;;;;;;;;;;;23.33;44.45;94886.66;5383098;26;7383;-66
2024/04/10 00:11:27;;;;;;;;;;;;;;;23.35;44.60;94894.38;5409450;26;7705;-65
2024/04/10 00:14:24;;;;;;;;;;;;;;;23.33;44.17;94892.13;5408756;26;7266;-65
2024/04/10 00:17:04;;;;;;;;;;;;;;;23.30;44.50;94875.84;5347255;26;8599;-65
2024/04/10 00:20:03;;;;;;;;;;;;;;;23.33;44.47;94883.09;5324230;26;7566;-66
2024/04/10 00:24:37;;;;;;;;;;;;;;;23.27;44.08;94879.56;5539515;25;6706;-59
2024/04/10 00:27:08;;;;;;;;;;;;;;;23.31;44.30;94888.34;5502977;26;8524;-60
2024/04/10 00:29:37;;;;;;;;;;;;;;;23.30;44.30;94887.56;5500108;25;7648;-60
2024/04/10 00:32:05;;;;;;;;;;;;;;;23.22;43.95;94889.25;5502759;26;9012;-60
2024/04/10 00:34:34;;;;;;;;;;;;;;;23.23;44.59;94888.75;5501764;25;7330;-59
2024/04/10 00:37:07;;;;;;;;;;;;;;;23.26;44.17;94898.00;5469740;26;7573;-59
2024/04/10 00:39:34;;;;;;;;;;;;;;;23.23;44.20;94890.72;5461212;26;7516;-59
2024/04/10 00:42:05;;;;;;;;;;;;;;;23.21;44.30;94899.47;5471062;26;7907;-59
2024/04/10 00:44:55;;;;;;;;;;;;;;;23.22;44.44;94886.50;5466651;26;9656;-59
2024/04/10 00:47:53;;;;;;;;;;;;;;;23.22;44.34;94892.00;5460868;26;9391;-59
2024/04/10 00:50:19;;;;;;;;;;;;;;;23.15;44.27;94886.91;5467980;25;7331;-59
2024/04/10 00:52:48;;;;;;;;;;;;;;;23.16;44.21;94880.19;5470644;26;9501;-60
2024/04/10 00:55:25;;;;;;;;;;;;;;;23.16;43.84;94877.47;5477246;26;7030;-60
2024/04/10 00:58:01;;;;;;;;;;;;;;;23.19;43.99;94892.94;5480381;26;7062;-59
2024/04/10 01:00:53;;;;;;;;;;;;;;;23.19;44.38;94896.44;5459324;26;7120;-60
2024/04/10 01:03:22;;;;;;;;;;;;;;;23.17;44.35;94885.19;5471034;26;7041;-59
2024/04/10 01:06:04;;;;;;;;;;;;;;;23.18;43.99;94902.44;5447495;26;7218;-59
2024/04/10 01:08:35;;;;;;;;;;;;;;;23.16;44.45;94902.88;5496143;26;7696;-60
2024/04/10 01:11:05;;;;;;;;;;;;;;;23.17;44.57;94900.91;5464213;26;9515;-60
2024/04/10 01:13:35;;;;;;;;;;;;;;;23.11;44.23;94892.63;5488405;26;7981;-59
2024/04/10 01:16:30;;;;;;;;;;;;;;;23.16;44.30;94908.38;5444742;26;7472;-59
2024/04/10 01:18:56;;;;;;;;;;;;;;;23.14;44.46;94905.34;5432013;26;7346;-59
2024/04/10 01:21:25;;;;;;;;;;;;;;;23.09;44.23;94892.34;5453335;26;7093;-59
2024/04/10 01:23:51;;;;;;;;;;;;;;;23.10;44.62;94902.06;5451617;26;7427;-59
2024/04/10 01:26:22;;;;;;;;;;;;;;;23.11;44.34;94909.09;5449873;26;7373;-60
2024/04/10 01:28:48;;;;;;;;;;;;;;;23.12;44.36;94910.56;5454806;26;7218;-59
2024/04/10 01:31:14;;;;;;;;;;;;;;;23.11;44.33;94917.31;5460831;26;7336;-59
2024/04/10 01:33:41;;;;;;;;;;;;;;;23.08;44.31;94892.81;5461044;26;9473;-61
2024/04/10 01:36:08;;;;;;;;;;;;;;;23.07;44.20;94894.06;5445091;26;7479;-61
2024/04/10 01:38:35;;;;;;;;;;;;;;;23.06;44.42;94896.06;5439632;26;7374;-62
2024/04/10 01:41:03;;;;;;;;;;;;;;;23.05;44.38;94891.78;5422746;26;7062;-61
2024/04/10 01:43:33;;;;;;;;;;;;;;;23.04;43.98;94900.50;5442526;26;7323;-62
2024/04/10 01:46:01;;;;;;;;;;;;;;;23.08;44.47;94895.56;5440064;26;7073;-61
2024/04/10 01:48:38;;;;;;;;;;;;;;;23.06;44.53;94896.06;5443001;26;7502;-62
2024/04/10 01:51:23;;;;;;;;;;;;;;;23.06;44.61;94892.53;5448445;26;7988;-61
2024/04/10 01:54:19;;;;;;;;;;;;;;;23.04;44.41;94886.78;5447759;26;8971;-62
2024/04/10 01:56:53;;;;;;;;;;;;;;;23.05;44.48;94893.78;5448061;26;7083;-61
2024/04/10 01:59:39;;;;;;;;;;;;;;;23.05;44.66;94894.53;5431730;26;7076;-61
2024/04/10 02:02:21;;;;;;;;;;;;;;;23.05;44.55;94908.25;5441917;26;8963;-62
2024/04/10 02:05:01;;;;;;;;;;;;;;;23.03;44.33;94897.00;5448939;26;7759;-61
2024/04/10 02:07:29;;;;;;;;;;;;;;;23.01;44.34;94910.44;5442242;26;7349;-62
2024/04/10 02:09:55;;;;;;;;;;;;;;;22.98;44.25;94905.94;5475779;26;7727;-62
2024/04/10 02:12:21;;;;;;;;;;;;;;;22.98;43.97;94905.94;5413496;26;7461;-62
2024/04/10 02:14:54;;;;;;;;;;;;;;;22.96;44.36;94902.94;5433650;26;7683;-61
2024/04/10 02:17:31;;;;;;;;;;;;;;;23.01;44.20;94904.97;5439984;26;7065;-61
2024/04/10 02:19:59;;;;;;;;;;;;;;;22.98;44.16;94897.72;5400458;26;9344;-61
2024/04/10 02:22:25;;;;;;;;;;;;;;;22.91;44.39;94892.63;5435621;26;7131;-62
2024/04/10 02:24:52;;;;;;;;;;;;;;;22.87;44.24;94886.59;5391497;26;7045;-61
2024/04/10 02:27:23;;;;;;;;;;;;;;;22.94;43.98;94894.44;5423313;26;7300;-61
2024/04/10 02:29:49;;;;;;;;;;;;;;;22.98;44.88;94911.44;5445575;26;7616;-61
2024/04/10 02:32:16;;;;;;;;;;;;;;;22.93;44.35;94897.63;5445624;26;8099;-61
2024/04/10 02:34:45;;;;;;;;;;;;;;;22.90;44.22;94893.13;5436564;26;7057;-61
2024/04/10 02:37:15;;;;;;;;;;;;;;;22.93;44.21;94911.34;5425484;26;7033;-61
2024/04/10 02:39:44;;;;;;;;;;;;;;;22.94;44.41;94921.09;5413113;26;7055;-61
2024/04/10 02:42:11;;;;;;;;;;;;;;;22.91;44.17;94911.06;5473764;26;7748;-62
2024/04/10 02:44:38;;;;;;;;;;;;;;;22.90;44.45;94909.59;5442868;26;7119;-62
2024/04/10 02:47:13;;;;;;;;;;;;;;;22.88;44.30;94901.06;5447113;26;9101;-62
2024/04/10 02:49:49;;;;;;;;;;;;;;;22.93;43.99;94897.63;5446007;26;7346;-61
2024/04/10 02:52:33;;;;;;;;;;;;;;;22.93;44.29;94906.63;5449027;26;7077;-61
2024/04/10 02:55:01;;;;;;;;;;;;;;;22.93;44.81;94909.38;5443072;26;8851;-61
2024/04/10 02:57:29;;;;;;;;;;;;;;;22.91;44.05;94922.03;5467034;26;7398;-61
2024/04/10 03:00:03;;;;;;;;;;;;;;;22.88;44.28;94921.00;5444800;26;7225;-61
2024/04/10 03:02:34;;;;;;;;;;;;;;;22.86;44.36;94926.22;5414450;26;7539;-61
2024/04/10 03:05:05;;;;;;;;;;;;;;;22.86;44.23;94926.22;5444546;26;7331;-61
2024/04/10 03:08:13;;;;;;;;;;;;;;;22.91;44.16;94931.03;5435749;26;7407;-61
2024/04/10 03:10:52;;;;;;;;;;;;;;;22.86;44.28;94911.78;5343583;26;7521;-61
2024/04/10 03:13:37;;;;;;;;;;;;;;;22.85;44.69;94904.78;5374588;26;7351;-61
2024/04/10 03:16:20;;;;;;;;;;;;;;;22.85;44.79;94913.75;5403049;26;7689;-61
2024/04/10 03:19:38;;;;;;;;;;;;;;;22.88;44.34;94918.28;5373025;26;7561;-61
2024/04/10 03:22:36;;;;;;;;;;;;;;;22.88;44.27;94929.25;5236500;27;7762;-61
2024/04/10 03:25:03;;;;;;;;;;;;;;;22.87;44.28;94929.72;5140335;27;7689;-61
2024/04/10 03:27:29;;;;;;;;;;;;;;;22.84;44.39;94931.44;5164609;27;7324;-60
2024/04/10 03:29:58;;;;;;;;;;;;;;;22.86;44.64;94931.72;5170713;27;8347;-60
2024/04/10 03:32:29;;;;;;;;;;;;;;;22.84;44.21;94925.94;5162276;27;7128;-59
2024/04/10 03:35:09;;;;;;;;;;;;;;;22.87;44.29;94937.97;5147770;27;7501;-59
2024/04/10 03:38:12;;;;;;;;;;;;;;;22.86;44.18;94942.69;5153334;27;7684;-59
2024/04/10 03:40:49;;;;;;;;;;;;;;;22.83;43.99;94942.91;5149878;27;7656;-60
2024/04/10 03:43:15;;;;;;;;;;;;;;;22.76;44.13;94941.31;5210939;27;8970;-59
2024/04/10 03:45:54;;;;;;;;;;;;;;;22.79;44.17;94948.59;5204750;27;9324;-60
2024/04/10 03:48:22;;;;;;;;;;;;;;;22.81;44.30;94942.63;5204145;27;7035;-60
2024/04/10 03:51:19;;;;;;;;;;;;;;;22.85;44.34;94954.13;5205188;27;7380;-60
2024/04/10 03:53:47;;;;;;;;;;;;;;;22.84;44.48;94952.63;5171792;27;7003;-59
2024/04/10 03:56:53;;;;;;;;;;;;;;;22.83;44.07;94962.84;5250341;27;7251;-59
2024/04/10 03:59:20;;;;;;;;;;;;;;;22.77;44.48;94951.03;5226516;27;7158;-60
2024/04/10 04:01:47;;;;;;;;;;;;;;;22.78;44.66;94952.56;5272054;27;6992;-60
2024/04/10 04:04:22;;;;;;;;;;;;;;;22.72;44.14;94950.97;5304529;27;8740;-59
2024/04/10 04:07:34;;;;;;;;;;;;;;;22.82;44.11;94969.56;5321651;26;7474;-59
2024/04/10 04:10:02;;;;;;;;;;;;;;;22.81;44.46;94978.28;5201265;27;8157;-59
2024/04/10 04:12:36;;;;;;;;;;;;;;;22.70;44.07;94962.44;5155061;27;9056;-58
2024/04/10 04:15:12;;;;;;;;;;;;;;;22.79;44.47;94986.97;5199410;27;7675;-60
2024/04/10 04:17:38;;;;;;;;;;;;;;;22.79;44.18;94988.97;5202685;27;7044;-60
2024/04/10 04:20:08;;;;;;;;;;;;;;;22.80;44.43;94987.72;5203625;27;7023;-60
2024/04/10 04:22:34;;;;;;;;;;;;;;;22.79;44.54;94984.25;5203705;27;7331;-60
2024/04/10 04:25:00;;;;;;;;;;;;;;;22.79;44.06;94992.47;5190193;27;6962;-60
2024/04/10 04:27:32;;;;;;;;;;;;;;;22.76;44.39;95001.63;5172026;27;7451;-60
2024/04/10 04:30:04;;;;;;;;;;;;;;;22.68;44.66;95002.50;5240164;27;9536;-60
2024/04/10 04:32:41;;;;;;;;;;;;;;;22.73;44.68;94999.84;5293238;26;9049;-58
2024/04/10 04:35:10;;;;;;;;;;;;;;;22.81;44.52;95005.69;5288752;27;7356;-59
2024/04/10 04:37:59;;;;;;;;;;;;;;;22.84;44.91;95010.97;5303169;26;7173;-59
2024/04/10 04:40:35;;;;;;;;;;;;;;;22.84;44.50;95010.22;5297690;27;7809;-59
2024/04/10 04:43:09;;;;;;;;;;;;;;;22.84;44.80;95016.47;5302965;26;6982;-59
2024/04/10 04:45:45;;;;;;;;;;;;;;;22.81;45.47;95006.47;5275284;27;7057;-59
2024/04/10 04:48:30;;;;;;;;;;;;;;;22.87;45.38;95012.00;5447154;26;7065;-59
2024/04/10 04:50:56;;;;;;;;;;;;;;;22.81;44.54;94994.72;5419873;26;7683;-57
2024/04/10 04:53:25;;;;;;;;;;;;;;;22.82;45.23;95007.97;5435383;26;7219;-57
2024/04/10 04:56:10;;;;;;;;;;;;;;;22.89;44.73;95012.28;5438239;26;7288;-61
2024/04/10 04:58:41;;;;;;;;;;;;;;;22.87;44.38;95007.28;5423134;26;7310;-58
2024/04/10 05:01:21;;;;;;;;;;;;;;;22.90;44.38;95016.56;5433748;26;7553;-60
2024/04/10 05:06:33;;;;;;;;;;;;;;;22.92;43.72;95027.81;5444203;26;7552;-64
2024/04/10 05:09:09;;;;;;;;;;;;;;;22.91;43.42;95023.53;5415108;26;6952;-63
2024/04/10 05:12:15;;;;;;;;;;;;;;;23.03;43.25;95041.66;5448060;26;7672;-64
2024/04/10 05:14:53;;;;;;;;;;;;;;;23.06;43.69;95043.44;5450549;26;8097;-63
2024/04/10 05:17:24;;;;;;;;;;;;;;;23.06;43.41;95035.97;5452575;26;7729;-67
2024/04/10 05:20:04;;;;;;;;;;;;;;;23.13;43.33;95045.78;5485910;26;7936;-65
2024/04/10 05:22:35;;;;;;;;;;;;;;;23.20;43.17;95064.59;5467914;26;8503;-66
2024/04/10 05:25:01;;;;;;;;;;;;;;;23.24;42.66;95054.94;5451344;26;9443;-66
2024/04/10 05:27:30;;;;;;;;;;;;;;;23.33;42.47;95056.03;5484026;26;9175;-65
2024/04/10 05:29:59;;;;;;;;;;;;;;;23.33;42.08;95051.34;5485834;26;9094;-65
2024/04/10 05:32:34;;;;;;;;;;;;;;;23.33;41.79;95045.84;5483650;26;8857;-65
2024/04/10 05:35:26;;;;;;;;;;;;;;;23.36;42.08;95039.38;5456902;26;9570;-65
2024/04/10 05:38:11;;;;;;;;;;;;;;;23.42;41.70;95039.47;5335433;26;9024;-65
2024/04/10 05:40:39;;;;;;;;;;;;;;;23.47;41.52;95055.25;5337137;26;9086;-65
2024/04/10 05:43:16;;;;;;;;;;;;;;;23.51;41.56;95056.53;5339178;26;9116;-63
2024/04/10 05:46:00;;;;;;;;;;;;;;;23.58;41.96;95058.09;5313959;26;9468;-62
2024/04/10 05:48:35;;;;;;;;;;;;;;;23.60;41.69;95052.88;5331905;26;9202;-65
2024/04/10 05:51:03;;;;;;;;;;;;;;;23.65;42.00;95060.44;5312248;26;7049;-66
2024/04/10 05:53:40;;;;;;;;;;;;;;;23.67;41.96;95068.94;5313137;26;8648;-65
2024/04/10 05:56:10;;;;;;;;;;;;;;;23.70;41.60;95068.00;5308956;26;8645;-65
2024/04/10 05:58:56;;;;;;;;;;;;;;;23.70;41.55;95065.25;5311742;26;9047;-65
2024/04/10 06:01:41;;;;;;;;;;;;;;;23.70;41.52;95068.00;5311308;26;9802;-65
2024/04/10 06:04:21;;;;;;;;;;;;;;;23.71;41.32;95075.00;5311067;26;9842;-63
2024/04/10 06:06:52;;;;;;;;;;;;;;;23.75;41.58;95075.56;5308944;26;9371;-65
2024/04/10 06:09:29;;;;;;;;;;;;;;;23.80;41.22;95072.09;5312105;26;7247;-65
2024/04/10 06:11:58;;;;;;;;;;;;;;;23.84;41.32;95067.91;5312125;26;9217;-65
2024/04/10 06:14:26;;;;;;;;;;;;;;;23.90;40.99;95076.97;5362269;26;9839;-71
2024/04/10 06:17:06;;;;;;;;;;;;;;;23.97;41.00;95075.78;5483697;26;7707;-71
2024/04/10 06:19:41;;;;;;;;;;;;;;;24.05;41.20;95082.41;5489423;26;8997;-71
2024/04/10 06:22:35;;;;;;;;;;;;;;;24.11;40.62;95083.22;5483500;26;9631;-71
2024/04/10 06:25:02;;;;;;;;;;;;;;;24.20;41.10;95083.06;5454580;26;9140;-71
2024/04/10 06:27:28;;;;;;;;;;;;;;;24.26;40.69;95086.63;5443963;26;9174;-72
2024/04/10 06:29:56;;;;;;;;;;;;;;;24.33;40.27;95080.69;5454366;26;9028;-73
2024/04/10 06:32:31;;;;;;;;;;;;;;;24.39;40.42;95072.47;5481533;26;7025;-72
2024/04/10 06:34:59;;;;;;;;;;;;;;;24.45;40.61;95082.28;5484319;26;9180;-73
2024/04/10 06:37:33;;;;;;;;;;;;;;;24.51;40.11;95085.84;5484042;26;8574;-72
2024/04/10 06:40:27;;;;;;;;;;;;;;;24.59;40.12;95086.16;5484239;26;7356;-72
2024/04/10 06:42:57;;;;;;;;;;;;;;;24.62;39.85;95091.44;5340019;26;9482;-73
2024/04/10 06:45:26;;;;;;;;;;;;;;;24.66;39.99;95089.22;5339891;26;9368;-72
2024/04/10 06:48:03;;;;;;;;;;;;;;;24.68;40.04;95088.75;5375781;26;8938;-73
2024/04/10 06:50:42;;;;;;;;;;;;;;;24.68;39.85;95097.72;5339594;26;9066;-73
2024/04/10 06:53:09;;;;;;;;;;;;;;;24.73;39.94;95097.03;5337924;26;9658;-73
2024/04/10 06:55:37;;;;;;;;;;;;;;;24.71;39.87;95105.03;5298820;26;9369;-73
2024/04/10 06:58:12;;;;;;;;;;;;;;;24.73;40.11;95110.78;5362744;26;8669;-73
2024/04/10 07:00:39;;;;;;;;;;;;;;;24.75;40.22;95115.09;5287878;26;9088;-72
2024/04/10 07:03:25;;;;;;;;;;;;;;;24.78;40.22;95122.34;5305395;26;9152;-73
2024/04/10 07:06:31;;;;;;;;;;;;;;;24.78;40.55;95127.84;5308036;26;9475;-73
2024/04/10 07:08:57;;;;;;;;;;;;;;;24.81;40.17;95124.13;5243526;27;7315;-73
2024/04/10 07:11:25;;;;;;;;;;;;;;;24.82;40.76;95123.63;5240746;27;9024;-73
2024/04/10 07:14:04;;;;;;;;;;;;;;;24.84;40.51;95123.16;5262356;27;9825;-73
2024/04/10 07:16:32;;;;;;;;;;;;;;;24.87;40.42;95133.94;5242635;27;9169;-73
2024/04/10 07:19:07;;;;;;;;;;;;;;;24.93;40.59;95133.97;5265252;26;7385;-73
2024/04/10 07:22:05;;;;;;;;;;;;;;;25.00;40.27;95133.53;5324107;26;7483;-73
2024/04/10 07:24:32;;;;;;;;;;;;;;;25.02;39.99;95128.28;5165630;27;8976;-62
2024/04/10 07:26:58;;;;;;;;;;;;;;;25.09;40.25;95136.88;5119599;27;9047;-62
2024/04/10 07:29:24;;;;;;;;;;;;;;;25.18;40.13;95138.69;5116037;27;7053;-62
2024/04/10 07:32:05;;;;;;;;;;;;;;;25.28;39.71;95140.75;5150514;27;9160;-62
2024/04/10 07:35:07;;;;;;;;;;;;;;;25.41;39.72;95145.84;5130258;27;9085;-62
2024/04/10 07:37:36;;;;;;;;;;;;;;;25.54;39.61;95146.19;5016580;28;9143;-62
2024/04/10 07:40:04;;;;;;;;;;;;;;;25.68;39.07;95134.25;5015497;28;9397;-62
2024/04/10 07:42:31;;;;;;;;;;;;;;;25.84;38.78;95143.84;5043409;27;6884;-62
2024/04/10 07:45:00;;;;;;;;;;;;;;;25.96;38.60;95139.91;5108587;27;9229;-62
2024/04/10 07:47:36;;;;;;;;;;;;;;;26.06;38.43;95146.69;5131772;27;9240;-62
2024/04/10 07:50:02;;;;;;;;;;;;;;;26.07;38.44;95148.97;5120189;27;9870;-63
2024/04/10 07:52:38;;;;;;;;;;;;;;;26.15;38.31;95155.53;5166031;27;9471;-63
2024/04/10 07:55:09;;;;;;;;;;;;;;;26.16;38.18;95151.50;5139047;27;9441;-63
2024/04/10 07:57:44;;;;;;;;;;;;;;;26.20;37.79;95159.56;5138731;27;9020;-63
2024/04/10 08:00:20;;;;;;;;;;;;;;;26.22;38.04;95159.81;5231708;27;7087;-63
2024/04/10 08:03:32;;;;;;;;;;;;;;;26.24;37.94;95162.06;5305065;27;9533;-63
2024/04/10 08:06:05;;;;;;;;;;;;;;;26.26;37.94;95159.56;5237126;27;9159;-63
2024/04/10 08:09:03;;;;;;;;;;;;;;;26.28;37.89;95160.59;5212890;27;9476;-63
2024/04/10 08:11:56;;;;;;;;;;;;;;;26.28;37.50;95168.09;5270198;27;9035;-63
2024/04/10 08:14:34;;;;;;;;;;;;;;;26.23;37.63;95161.31;5407750;26;8598;-63
2024/04/10 08:17:10;;;;;;;;;;;;;;;26.27;37.77;95166.59;5351620;26;9429;-63
2024/04/10 08:20:03;;;;;;;;;;;;;;;26.27;37.88;95167.38;5401990;26;9380;-63
2024/04/10 08:22:35;;;;;;;;;;;;;;;26.26;37.86;95181.63;5382341;26;9744;-61
2024/04/10 08:25:01;;;;;;;;;;;;;;;26.26;37.61;95178.88;5408725;26;9231;-62
2024/04/10 08:27:30;;;;;;;;;;;;;;;26.26;37.73;95176.88;5408868;26;9487;-62
2024/04/10 08:29:56;;;;;;;;;;;;;;;26.27;37.81;95188.66;5408645;26;7188;-64
2024/04/10 08:32:25;;;;;;;;;;;;;;;26.27;38.02;95194.19;5408831;26;9103;-68
2024/04/10 08:35:10;;;;;;;;;;;;;;;26.27;37.47;95194.19;5408782;26;8977;-71
2024/04/10 08:37:52;;;;;;;;;;;;;;;26.26;38.15;95206.44;5408632;26;7184;-71
2024/04/10 08:40:38;;;;;;;;;;;;;;;26.27;37.77;95213.50;5409155;26;8652;-75
2024/04/10 08:43:37;;;;;;;;;;;;;;;26.26;38.53;95212.72;5424656;26;9805;-75
2024/04/10 08:46:24;;;;;;;;;;;;;;;26.25;38.44;95222.25;5418958;26;9261;-64
2024/04/10 08:48:56;;;;;;;;;;;;;;;26.27;38.76;95232.78;5382467;26;8931;-63
2024/04/10 08:51:58;;;;;;;;;;;;;;;26.29;40.26;95235.81;5389006;26;9481;-63
2024/04/10 08:54:35;;;;;;;;;;;;;;;26.32;40.93;95237.59;5317339;26;9098;-63
2024/04/10 08:57:02;;;;;;;;;;;;;;;26.36;42.64;95243.63;5341829;26;9155;-64
2024/04/10 08:59:30;;;;;;;;;;;;;;;26.42;43.81;95250.66;5312951;26;8974;-64
2024/04/10 09:02:07;;;;;;;;;;;;;;;26.47;44.34;95258.19;5341701;26;9470;-62
2024/04/10 09:05:09;;;;;;;;;;;;;;;26.52;44.60;95256.69;5341587;26;7255;-63
2024/04/10 09:08:07;;;;;;;;;;;;;;;26.55;43.66;95258.47;5212061;27;9862;-62
2024/04/10 09:11:07;;;;;;;;;;;;;;;26.55;40.56;95258.47;5206407;27;7793;-67
2024/04/10 09:14:03;;;;;;;;;;;;;;;26.53;38.05;95258.22;5502977;25;6674;-68
2024/04/10 09:16:30;;;;;;;;;;;;;;;26.49;37.95;95255.69;5486340;26;7341;-65
2024/04/10 09:19:22;;;;;;;;;;;;;;;26.52;38.86;95257.47;5459158;26;7073;-66
2024/04/10 09:22:00;;;;;;;;;;;;;;;26.44;38.60;95259.19;5429150;26;7293;-66
2024/04/10 09:24:35;;;;;;;;;;;;;;;26.37;38.32;95254.16;5423082;26;8555;-66
2024/04/10 09:27:14;;;;;;;;;;;;;;;26.30;37.86;95254.59;5394783;26;6869;-66
2024/04/10 09:29:42;;;;;;;;;;;;;;;26.27;37.86;95263.13;5409399;26;7624;-65
2024/04/10 09:32:19;;;;;;;;;;;;;;;26.20;37.80;95252.56;5457971;26;7344;-65
2024/04/10 09:34:51;;;;;;;;;;;;;;;26.17;37.72;95255.06;5430266;26;7141;-65
2024/04/10 09:37:20;;;;;;;;;;;;;;;26.14;39.00;95253.28;5430365;26;7083;-66
2024/04/10 09:39:50;;;;;;;;;;;;;;;26.10;39.00;95255.50;5422498;26;7099;-65
2024/04/10 09:42:36;;;;;;;;;;;;;;;26.10;38.96;95250.00;5394593;26;7402;-61
2024/04/10 09:45:21;;;;;;;;;;;;;;;26.03;39.22;95247.66;5404195;26;7314;-61
2024/04/10 09:47:50;;;;;;;;;;;;;;;26.01;39.72;95244.66;5429516;26;7309;-61
2024/04/10 09:50:19;;;;;;;;;;;;;;;25.97;39.69;95238.63;5406755;26;7225;-60
2024/04/10 09:52:53;;;;;;;;;;;;;;;26.00;39.84;95234.13;5430313;26;6896;-60
2024/04/10 09:55:23;;;;;;;;;;;;;;;26.10;39.43;95240.97;5456886;26;7342;-60
2024/04/10 09:58:19;;;;;;;;;;;;;;;26.12;39.92;95242.00;5421365;26;9157;-60
2024/04/10 10:00:54;;;;;;;;;;;;;;;26.06;39.94;95230.16;5260043;26;7398;-61
2024/04/10 10:03:27;;;;;;;;;;;;;;;26.08;40.05;95233.19;5287271;27;9275;-61
2024/04/10 10:06:15;;;;;;;;;;;;;;;26.12;40.07;95232.97;5287208;27;7674;-61
2024/04/10 10:08:51;;;;;;;;;;;;;;;26.10;40.24;95238.97;5279028;27;8775;-60
2024/04/10 10:11:22;;;;;;;;;;;;;;;26.14;40.10;95242.25;5320337;27;7479;-59
2024/04/10 10:13:59;;;;;;;;;;;;;;;26.17;39.97;95241.28;5295391;27;7473;-59
2024/04/10 10:16:27;;;;;;;;;;;;;;;26.18;39.76;95236.50;5299350;26;7168;-60
2024/04/10 10:19:07;;;;;;;;;;;;;;;26.12;40.12;95233.72;5312634;27;7336;-60
2024/04/10 10:21:33;;;;;;;;;;;;;;;26.15;39.92;95234.72;5288179;27;7327;-60
2024/04/10 10:24:16;;;;;;;;;;;;;;;26.19;39.93;95246.28;5314257;26;9096;-60
2024/04/10 10:27:23;;;;;;;;;;;;;;;26.16;39.80;95245.25;5294390;27;9513;-60
2024/04/10 10:30:09;;;;;;;;;;;;;;;26.18;39.78;95255.81;5299785;27;7381;-60
2024/04/10 10:32:37;;;;;;;;;;;;;;;26.11;39.88;95248.75;5304781;27;6974;-61
2024/04/10 10:35:10;;;;;;;;;;;;;;;26.14;40.04;95253.28;5298709;27;8922;-61
2024/04/10 10:37:36;;;;;;;;;;;;;;;26.12;40.22;95252.28;5308207;26;7082;-61
2024/04/10 10:40:06;;;;;;;;;;;;;;;26.07;40.19;95242.72;5379079;26;7952;-61
2024/04/10 10:42:40;;;;;;;;;;;;;;;26.08;40.24;95243.44;5383869;26;7027;-61
2024/04/10 10:45:08;;;;;;;;;;;;;;;26.09;40.35;95245.75;5405611;26;7386;-61
2024/04/10 10:48:08;;;;;;;;;;;;;;;26.13;40.19;95268.31;5386314;26;7304;-61
2024/04/10 10:50:45;;;;;;;;;;;;;;;26.03;40.12;95264.22;5312389;26;7110;-61
2024/04/10 10:53:15;;;;;;;;;;;;;;;26.08;40.23;95280.06;5341001;26;7576;-63
2024/04/10 10:55:51;;;;;;;;;;;;;;;26.04;40.21;95276.75;5348389;26;7201;-63
2024/04/10 10:58:19;;;;;;;;;;;;;;;26.04;40.57;95281.50;5358807;26;6979;-64
2024/04/10 11:01:19;;;;;;;;;;;;;;;26.02;40.54;95276.50;5370769;26;7116;-62
2024/04/10 11:03:49;;;;;;;;;;;;;;;25.96;40.45;95253.66;5263951;27;6986;-62
2024/04/10 11:06:36;;;;;;;;;;;;;;;26.00;40.54;95261.69;5306111;27;7064;-62
2024/04/10 11:09:17;;;;;;;;;;;;;;;25.94;40.56;95256.16;5291500;27;8201;-62
2024/04/10 11:11:44;;;;;;;;;;;;;;;25.98;40.86;95258.69;5299835;27;7267;-62
2024/04/10 11:14:21;;;;;;;;;;;;;;;25.92;40.59;95244.13;5269301;26;7214;-62
2024/04/10 11:16:58;;;;;;;;;;;;;;;25.89;40.85;95236.81;5324199;26;7225;-62
2024/04/10 11:19:38;;;;;;;;;;;;;;;25.92;40.79;95244.88;5298747;26;7141;-61
2024/04/10 11:22:16;;;;;;;;;;;;;;;25.86;40.83;95233.03;5284940;26;7056;-62
2024/04/10 11:24:53;;;;;;;;;;;;;;;25.86;40.95;95233.03;5321996;26;9016;-63
2024/04/10 11:27:48;;;;;;;;;;;;;;;25.91;41.05;95228.81;5303534;26;7561;-62
2024/04/10 11:30:25;;;;;;;;;;;;;;;25.78;40.87;95212.72;5304259;26;7039;-62
2024/04/10 11:33:16;;;;;;;;;;;;;;;25.90;41.00;95233.56;5300265;26;7070;-62
2024/04/10 11:35:59;;;;;;;;;;;;;;;25.91;40.81;95234.31;5304525;27;9061;-62
2024/04/10 11:38:28;;;;;;;;;;;;;;;25.90;40.80;95228.06;5300687;26;7308;-62
2024/04/10 11:41:05;;;;;;;;;;;;;;;25.90;40.98;95230.06;5402041;26;7437;-62
2024/04/10 11:43:37;;;;;;;;;;;;;;;25.91;40.89;95229.56;5411075;26;7062;-62
2024/04/10 11:46:23;;;;;;;;;;;;;;;25.91;40.67;95232.34;5413267;26;7039;-62
2024/04/10 11:49:25;;;;;;;;;;;;;;;25.86;40.77;95229.56;5423549;26;7823;-62
2024/04/10 11:52:23;;;;;;;;;;;;;;;25.69;41.26;95234.94;5411226;26;7917;-62
2024/04/10 11:54:49;;;;;;;;;;;;;;;25.52;41.29;95223.06;5344373;26;7180;-62
2024/04/10 11:57:29;;;;;;;;;;;;;;;25.43;41.75;95229.50;5356504;26;7068;-62
2024/04/10 11:59:56;;;;;;;;;;;;;;;25.34;41.76;95226.16;5364090;26;7057;-63
2024/04/10 12:02:31;;;;;;;;;;;;;;;25.22;42.01;95232.81;5347034;26;8074;-65
2024/04/10 12:05:13;;;;;;;;;;;;;;;25.12;42.19;95221.22;5334163;26;7331;-65
2024/04/10 12:07:41;;;;;;;;;;;;;;;25.07;42.35;95234.94;5373131;26;8014;-65
2024/04/10 12:10:17;;;;;;;;;;;;;;;24.99;42.46;95239.38;5346034;26;7153;-64
2024/04/10 12:12:48;;;;;;;;;;;;;;;24.82;42.70;95230.19;5344614;26;7374;-64
2024/04/10 12:15:18;;;;;;;;;;;;;;;24.69;43.04;95223.03;5346443;26;7054;-64
2024/04/10 12:17:50;;;;;;;;;;;;;;;24.65;43.28;95225.25;5364332;26;8477;-64
2024/04/10 12:20:17;;;;;;;;;;;;;;;24.52;43.46;95222.13;5354417;26;7313;-66
2024/04/10 12:22:44;;;;;;;;;;;;;;;24.40;43.58;95211.47;5349844;26;7077;-65
2024/04/10 12:25:11;;;;;;;;;;;;;;;24.38;44.13;95214.69;5374714;26;7215;-64
2024/04/10 12:27:40;;;;;;;;;;;;;;;24.29;44.25;95216.84;5345412;26;7013;-64
2024/04/10 12:30:23;;;;;;;;;;;;;;;24.24;44.58;95201.81;5346862;26;7677;-64
2024/04/10 12:32:52;;;;;;;;;;;;;;;24.17;44.12;95204.19;5389621;26;7257;-65
2024/04/10 12:38:08;;;;;;;;;;;;;;;24.13;44.31;95209.91;5385882;26;7694;-65
2024/04/10 12:40:35;;;;;;;;;;;;;;;24.10;44.50;95199.88;5415035;26;7223;-66
2024/04/10 12:43:03;;;;;;;;;;;;;;;24.09;44.45;95194.88;5396949;26;7335;-65
2024/04/10 12:45:29;;;;;;;;;;;;;;;24.12;44.59;95202.88;5376642;26;7336;-66
2024/04/10 12:48:32;;;;;;;;;;;;;;;24.12;44.50;95213.88;5396176;26;7061;-66
2024/04/10 12:51:03;;;;;;;;;;;;;;;24.08;44.73;95224.34;5311460;26;7741;-66
2024/04/10 12:53:47;;;;;;;;;;;;;;;24.04;44.56;95212.75;5330844;26;7067;-65
2024/04/10 12:56:34;;;;;;;;;;;;;;;24.05;44.79;95216.31;5337021;26;7957;-65
2024/04/10 12:59:01;;;;;;;;;;;;;;;23.98;44.75;95209.19;5327025;26;7271;-65
2024/04/10 13:01:32;;;;;;;;;;;;;;;23.98;44.55;95207.22;5297431;26;7226;-64
2024/04/10 13:04:17;;;;;;;;;;;;;;;24.04;44.77;95215.50;5333800;26;8390;-66
2024/04/10 13:06:53;;;;;;;;;;;;;;;24.03;44.84;95216.00;5329213;26;7026;-65
2024/04/10 13:09:20;;;;;;;;;;;;;;;24.03;44.55;95216.00;5292470;26;7406;-65
2024/04/10 13:11:46;;;;;;;;;;;;;;;23.99;44.61;95211.47;5325309;26;6944;-65
2024/04/10 13:14:15;;;;;;;;;;;;;;;23.99;44.55;95213.44;5337721;26;7395;-65
2024/04/10 13:16:43;;;;;;;;;;;;;;;23.99;45.11;95210.69;5282485;26;7701;-65
2024/04/10 13:19:10;;;;;;;;;;;;;;;23.94;44.72;95209.41;5337696;26;7422;-64
2024/04/10 13:21:52;;;;;;;;;;;;;;;23.98;44.65;95217.44;5286710;26;7124;-65
2024/04/10 13:24:50;;;;;;;;;;;;;;;23.96;44.91;95211.66;5309184;26;7312;-65
2024/04/10 13:27:18;;;;;;;;;;;;;;;23.92;44.50;95200.88;5306911;26;7084;-65
2024/04/10 13:29:51;;;;;;;;;;;;;;;23.86;44.24;95204.78;5325120;26;7120;-65
2024/04/10 13:32:33;;;;;;;;;;;;;;;23.87;44.78;95206.31;5316101;26;8942;-65
2024/04/10 13:35:14;;;;;;;;;;;;;;;23.90;44.37;95210.84;5303272;26;6891;-65
2024/04/10 13:38:24;;;;;;;;;;;;;;;23.90;44.46;95208.84;5287198;26;7338;-65
2024/04/10 13:41:12;;;;;;;;;;;;;;;23.83;44.52;95200.25;5302564;26;7367;-65
2024/04/10 13:43:50;;;;;;;;;;;;;;;23.85;44.55;95200.53;5312164;26;9267;-65
2024/04/10 13:46:25;;;;;;;;;;;;;;;23.87;44.49;95200.81;5316658;26;7063;-65
2024/04/10 13:48:54;;;;;;;;;;;;;;;23.82;44.59;95199.50;5331459;26;9226;-65
2024/04/10 13:51:25;;;;;;;;;;;;;;;23.86;44.57;95204.78;5313700;26;7422;-67
2024/04/10 13:53:54;;;;;;;;;;;;;;;23.92;44.65;95211.84;5317996;26;7791;-65